Time;durP1;ratioP1;P1;durP2;ratioP2;P2;SDS_P1;SDS_P2;PMS_P1;PMS_P2;Temp;Humidity;BMP_temperature;BMP_pressure;BME280_temperature;BME280_humidity;BME280_pressure;Samples;Min_cycle;Max_cycle;Signal;HPM_P1;HPM_P2
2022/10/30 00:00:06;;;;;;;19.33;5.90;;;;;;;;;;1033159;28;20529;-77
2022/10/30 00:00:36;;;;;;;16.38;5.55;;;;;;;;;;1031422;28;20497;-77
2022/10/30 00:01:07;;;;;;;14.27;5.70;;;;;;;;;;1031323;28;20030;-77
2022/10/30 00:01:37;;;;;;;14.82;5.43;;;;;;;;;;1031200;28;20483;-77
2022/10/30 00:02:08;;;;;;;14.50;6.60;;;;;;;;;;1031498;28;20026;-78
2022/10/30 00:02:38;;;;;;;12.90;6.80;;;;;;;;;;1031171;28;20022;-77
2022/10/30 00:03:10;;;;;;;7.72;5.13;;;;;;;;;;1035205;28;20033;-78
2022/10/30 00:03:41;;;;;;;12.77;5.80;;;;;;;;;;1031115;28;20046;-78
2022/10/30 00:04:11;;;;;;;16.05;7.13;;;;;;;;;;1031312;28;20026;-77
2022/10/30 00:04:42;;;;;;;9.68;5.05;;;;;;;;;;1031162;28;20036;-77
2022/10/30 00:05:13;;;;;;;27.58;6.25;;;;;;;;;;1031354;28;20121;-77
2022/10/30 00:05:44;;;;;;;9.10;4.82;;;;;;;;;;1035345;28;20120;-77
2022/10/30 00:06:15;;;;;;;14.57;6.40;;;;;;;;;;1034540;28;20055;-77
2022/10/30 00:06:47;;;;;;;12.82;5.72;;;;;;;;;;1031247;28;20482;-77
2022/10/30 00:07:17;;;;;;;14.15;5.25;;;;;;;;;;1028154;28;20106;-77
2022/10/30 00:07:48;;;;;;;11.52;6.00;;;;;;;;;;1029338;28;20430;-77
2022/10/30 00:08:19;;;;;;;10.43;5.72;;;;;;;;;;1028199;28;20471;-78
2022/10/30 00:08:50;;;;;;;15.77;4.88;;;;;;;;;;1032863;28;20029;-77
2022/10/30 00:09:21;;;;;;;8.93;4.88;;;;;;;;;;1031589;28;20089;-78
2022/10/30 00:09:51;;;;;;;8.90;5.30;;;;;;;;;;1031193;28;20113;-77
2022/10/30 00:10:22;;;;;;;14.15;4.75;;;;;;;;;;1031249;28;20023;-77
2022/10/30 00:10:53;;;;;;;12.05;6.30;;;;;;;;;;1030090;28;20077;-78
2022/10/30 00:11:23;;;;;;;10.40;4.75;;;;;;;;;;1031228;28;20041;-78
2022/10/30 00:11:54;;;;;;;8.32;4.97;;;;;;;;;;1033562;28;20029;-77
2022/10/30 00:12:24;;;;;;;11.50;4.82;;;;;;;;;;1029037;28;20053;-77
2022/10/30 00:12:55;;;;;;;14.55;6.45;;;;;;;;;;1029090;28;20033;-77
2022/10/30 00:13:25;;;;;;;11.93;5.50;;;;;;;;;;1029921;28;20039;-77
2022/10/30 00:13:56;;;;;;;10.75;4.53;;;;;;;;;;1031130;28;20666;-77
2022/10/30 00:14:26;;;;;;;13.90;4.53;;;;;;;;;;1031242;28;20023;-77
2022/10/30 00:14:57;;;;;;;10.52;4.28;;;;;;;;;;1031282;28;20045;-77
2022/10/30 00:15:28;;;;;;;12.45;4.68;;;;;;;;;;1031177;28;20105;-78
2022/10/30 00:15:58;;;;;;;9.82;6.05;;;;;;;;;;1031423;28;20506;-78
2022/10/30 00:16:29;;;;;;;11.32;6.00;;;;;;;;;;1035366;28;20360;-77
2022/10/30 00:16:59;;;;;;;8.32;5.03;;;;;;;;;;1035371;28;20041;-77
2022/10/30 00:17:30;;;;;;;13.30;5.07;;;;;;;;;;1031449;28;20022;-77
2022/10/30 00:18:00;;;;;;;13.50;5.70;;;;;;;;;;1030539;28;20022;-78
2022/10/30 00:18:31;;;;;;;8.23;4.63;;;;;;;;;;1026895;28;20069;-78
2022/10/30 00:19:02;;;;;;;13.35;4.95;;;;;;;;;;1027253;28;20023;-78
2022/10/30 00:19:32;;;;;;;10.95;4.95;;;;;;;;;;1027228;28;20450;-77
2022/10/30 00:20:03;;;;;;;10.75;5.65;;;;;;;;;;1027464;28;20018;-77
2022/10/30 00:20:35;;;;;;;9.55;4.68;;;;;;;;;;1030920;28;20425;-77
2022/10/30 00:21:10;;;;;;;13.02;6.53;;;;;;;;;;1027557;28;20038;-78
2022/10/30 00:21:41;;;;;;;8.70;5.07;;;;;;;;;;1032061;28;20573;-78
2022/10/30 00:22:11;;;;;;;10.93;6.68;;;;;;;;;;1035325;28;20022;-78
2022/10/30 00:22:42;;;;;;;18.45;6.38;;;;;;;;;;1035260;28;20018;-78
2022/10/30 00:23:12;;;;;;;11.32;4.90;;;;;;;;;;1031087;28;20536;-78
2022/10/30 00:23:47;;;;;;;11.07;5.60;;;;;;;;;;1031180;28;20463;-78
2022/10/30 00:24:17;;;;;;;13.77;4.13;;;;;;;;;;1030880;28;20030;-78
2022/10/30 00:24:48;;;;;;;13.85;6.90;;;;;;;;;;1031310;28;20502;-78
2022/10/30 00:25:18;;;;;;;12.68;5.82;;;;;;;;;;1031156;28;20026;-77
2022/10/30 00:25:49;;;;;;;16.67;6.57;;;;;;;;;;1031237;28;20030;-77
2022/10/30 00:26:20;;;;;;;15.48;4.85;;;;;;;;;;1031076;28;20553;-78
2022/10/30 00:26:51;;;;;;;7.43;5.40;;;;;;;;;;1031112;28;20533;-78
2022/10/30 00:27:21;;;;;;;9.65;5.00;;;;;;;;;;1031474;28;20030;-78
2022/10/30 00:27:52;;;;;;;9.30;5.25;;;;;;;;;;1030424;28;20030;-78
2022/10/30 00:28:22;;;;;;;14.85;7.35;;;;;;;;;;1030998;28;20390;-78
2022/10/30 00:28:54;;;;;;;12.52;6.07;;;;;;;;;;1031502;28;20069;-78
2022/10/30 00:29:25;;;;;;;15.52;8.38;;;;;;;;;;1031103;28;20713;-78
2022/10/30 00:29:55;;;;;;;15.13;7.65;;;;;;;;;;1031384;28;20030;-77
2022/10/30 00:30:26;;;;;;;13.38;5.97;;;;;;;;;;1031216;28;20018;-77
2022/10/30 00:31:00;;;;;;;12.45;6.85;;;;;;;;;;1031215;28;20073;-77
2022/10/30 00:31:31;;;;;;;16.00;7.32;;;;;;;;;;1033104;28;20030;-78
2022/10/30 00:32:01;;;;;;;19.02;6.43;;;;;;;;;;1033354;28;20033;-78
2022/10/30 00:32:32;;;;;;;13.88;6.03;;;;;;;;;;1033154;28;20484;-77
2022/10/30 00:33:03;;;;;;;11.10;5.70;;;;;;;;;;1032805;28;20154;-78
2022/10/30 00:33:34;;;;;;;20.05;5.63;;;;;;;;;;1031334;28;20018;-78
2022/10/30 00:34:04;;;;;;;13.80;4.50;;;;;;;;;;1031644;28;20375;-78
2022/10/30 00:34:35;;;;;;;18.00;6.38;;;;;;;;;;1031424;28;20026;-78
2022/10/30 00:35:05;;;;;;;10.10;4.97;;;;;;;;;;1031396;28;20041;-78
2022/10/30 00:35:36;;;;;;;6.57;4.30;;;;;;;;;;1035073;28;20026;-77
2022/10/30 00:36:06;;;;;;;9.25;5.60;;;;;;;;;;1035334;28;20026;-77
2022/10/30 00:36:37;;;;;;;8.68;5.50;;;;;;;;;;1035063;28;20029;-78
2022/10/30 00:37:08;;;;;;;7.72;4.70;;;;;;;;;;1031212;28;20152;-77
2022/10/30 00:37:38;;;;;;;10.82;4.90;;;;;;;;;;1030084;28;20403;-78
2022/10/30 00:38:09;;;;;;;6.60;4.47;;;;;;;;;;1031269;28;20026;-78
2022/10/30 00:38:39;;;;;;;13.60;5.20;;;;;;;;;;1031110;28;20027;-78
2022/10/30 00:39:10;;;;;;;10.45;6.05;;;;;;;;;;1031575;28;20053;-78
2022/10/30 00:39:40;;;;;;;12.13;6.13;;;;;;;;;;1031202;28;20030;-78
2022/10/30 00:40:13;;;;;;;8.02;5.72;;;;;;;;;;1031187;28;20096;-77
2022/10/30 00:40:44;;;;;;;7.80;3.92;;;;;;;;;;1031216;28;20022;-78
2022/10/30 00:41:19;;;;;;;12.30;5.00;;;;;;;;;;1031159;28;20025;-78
2022/10/30 00:41:50;;;;;;;8.93;5.22;;;;;;;;;;1031576;28;20057;-77
2022/10/30 00:42:20;;;;;;;9.23;4.78;;;;;;;;;;1031556;28;20541;-77
2022/10/30 00:42:51;;;;;;;17.75;6.47;;;;;;;;;;1035031;28;20393;-77
2022/10/30 00:43:31;;;;;;;8.02;3.83;;;;;;;;;;1031270;28;20460;-77
2022/10/30 00:44:01;;;;;;;6.80;3.95;;;;;;;;;;1031246;28;20033;-77
2022/10/30 00:44:44;;;;;;;11.48;4.45;;;;;;;;;;1030077;28;20117;-77
2022/10/30 00:45:15;;;;;;;10.60;4.50;;;;;;;;;;1034093;28;20522;-77
2022/10/30 00:45:46;;;;;;;9.02;4.88;;;;;;;;;;1032698;28;20022;-77
2022/10/30 00:46:22;;;;;;;9.60;6.00;;;;;;;;;;1032019;28;20026;-77
2022/10/30 00:46:53;;;;;;;8.05;4.07;;;;;;;;;;1031264;28;20022;-78
2022/10/30 00:47:31;;;;;;;14.23;4.47;;;;;;;;;;1032250;28;20033;-77
2022/10/30 00:48:02;;;;;;;13.32;4.13;;;;;;;;;;1031627;28;20526;-77
2022/10/30 00:48:33;;;;;;;8.98;3.45;;;;;;;;;;1031695;28;20046;-77
2022/10/30 00:49:04;;;;;;;13.38;5.47;;;;;;;;;;1032002;28;20054;-77
2022/10/30 00:49:36;;;;;;;7.53;4.00;;;;;;;;;;1031919;28;20031;-77
2022/10/30 00:50:18;;;;;;;8.40;4.43;;;;;;;;;;1036124;28;20025;-78
2022/10/30 00:50:48;;;;;;;12.30;4.90;;;;;;;;;;1035835;28;20529;-78
2022/10/30 00:51:20;;;;;;;10.43;4.95;;;;;;;;;;1031782;28;20034;-78
2022/10/30 00:51:52;;;;;;;9.23;4.93;;;;;;;;;;1030356;28;20041;-78
2022/10/30 00:52:24;;;;;;;7.68;4.50;;;;;;;;;;1028237;28;20023;-77
2022/10/30 00:52:59;;;;;;;8.02;4.72;;;;;;;;;;1032503;28;20022;-77
2022/10/30 00:53:30;;;;;;;8.85;4.55;;;;;;;;;;1035828;28;20085;-77
2022/10/30 00:54:02;;;;;;;8.13;5.10;;;;;;;;;;1035133;28;20124;-77
2022/10/30 00:54:33;;;;;;;8.68;5.50;;;;;;;;;;1031421;28;20092;-77
2022/10/30 00:55:08;;;;;;;13.00;3.88;;;;;;;;;;1032079;28;20064;-77
2022/10/30 00:55:59;;;;;;;16.88;6.68;;;;;;;;;;1030880;28;20030;-77
2022/10/30 00:56:30;;;;;;;12.27;4.32;;;;;;;;;;1031217;28;20037;-78
2022/10/30 00:57:02;;;;;;;14.60;6.05;;;;;;;;;;1035416;28;20413;-78
2022/10/30 00:57:34;;;;;;;11.68;5.03;;;;;;;;;;1035738;28;20029;-77
2022/10/30 00:58:07;;;;;;;6.78;3.63;;;;;;;;;;1036582;28;20021;-78
2022/10/30 00:58:40;;;;;;;7.45;3.67;;;;;;;;;;1029750;28;20023;-77
2022/10/30 00:59:12;;;;;;;9.40;4.82;;;;;;;;;;1030480;28;20023;-77
2022/10/30 00:59:44;;;;;;;16.27;5.10;;;;;;;;;;1029740;28;20033;-78
2022/10/30 01:00:14;;;;;;;5.57;3.80;;;;;;;;;;1029504;28;20038;-78
2022/10/30 01:00:47;;;;;;;6.45;4.30;;;;;;;;;;1035913;28;20032;-77
2022/10/30 01:01:21;;;;;;;9.75;4.30;;;;;;;;;;1035731;28;20030;-77
2022/10/30 01:01:52;;;;;;;7.18;3.83;;;;;;;;;;1034981;28;20029;-77
2022/10/30 01:02:23;;;;;;;6.72;4.30;;;;;;;;;;1032146;28;20022;-77
2022/10/30 01:02:54;;;;;;;11.05;3.40;;;;;;;;;;1031737;28;20029;-78
2022/10/30 01:03:26;;;;;;;7.35;3.67;;;;;;;;;;1031768;28;20482;-78
2022/10/30 01:03:59;;;;;;;8.00;4.53;;;;;;;;;;1031903;28;20029;-78
2022/10/30 01:04:30;;;;;;;11.25;3.95;;;;;;;;;;1032571;28;20040;-77
2022/10/30 01:05:01;;;;;;;11.57;6.32;;;;;;;;;;1031861;28;20482;-77
2022/10/30 01:05:32;;;;;;;14.50;5.53;;;;;;;;;;1031752;28;20530;-77
2022/10/30 01:06:05;;;;;;;12.63;4.00;;;;;;;;;;1032000;28;20026;-78
2022/10/30 01:06:38;;;;;;;8.05;4.13;;;;;;;;;;1032019;28;20497;-78
2022/10/30 01:07:09;;;;;;;10.43;5.03;;;;;;;;;;1035386;28;20033;-78
2022/10/30 01:07:40;;;;;;;7.55;4.10;;;;;;;;;;1031679;28;20081;-77
2022/10/30 01:08:11;;;;;;;7.32;4.82;;;;;;;;;;1031852;28;20463;-77
2022/10/30 01:08:42;;;;;;;8.07;3.65;;;;;;;;;;1031727;28;20018;-77
2022/10/30 01:09:13;;;;;;;10.38;5.30;;;;;;;;;;1031740;28;20023;-77
2022/10/30 01:09:45;;;;;;;7.63;3.90;;;;;;;;;;1035329;28;20077;-77
2022/10/30 01:10:16;;;;;;;10.07;5.00;;;;;;;;;;1035878;28;20034;-77
2022/10/30 01:10:47;;;;;;;10.50;4.85;;;;;;;;;;1031845;28;20014;-77
2022/10/30 01:11:17;;;;;;;13.60;4.28;;;;;;;;;;1031804;28;20478;-77
2022/10/30 01:11:48;;;;;;;8.75;4.47;;;;;;;;;;1031873;28;20029;-77
2022/10/30 01:12:18;;;;;;;10.05;4.53;;;;;;;;;;1031431;28;20019;-77
2022/10/30 01:12:50;;;;;;;10.23;3.90;;;;;;;;;;1035701;28;20437;-77
2022/10/30 01:13:22;;;;;;;12.32;5.53;;;;;;;;;;1031609;28;20022;-78
2022/10/30 01:13:53;;;;;;;8.90;4.63;;;;;;;;;;1032077;28;20501;-78
2022/10/30 01:14:24;;;;;;;18.38;5.22;;;;;;;;;;1031733;28;20057;-77
2022/10/30 01:14:56;;;;;;;14.75;5.93;;;;;;;;;;1023129;28;20097;-77
2022/10/30 01:15:32;;;;;;;18.70;5.85;;;;;;;;;;1030974;28;20037;-77
2022/10/30 01:16:18;;;;;;;17.88;6.95;;;;;;;;;;1032952;28;20109;-77
2022/10/30 01:16:51;;;;;;;16.70;6.60;;;;;;;;;;1035789;28;20022;-77
2022/10/30 01:17:30;;;;;;;10.73;5.10;;;;;;;;;;1035847;28;20109;-78
2022/10/30 01:18:10;;;;;;;14.52;5.95;;;;;;;;;;1035989;28;20033;-77
2022/10/30 01:18:40;;;;;;;7.15;4.43;;;;;;;;;;1031814;28;20029;-78
2022/10/30 01:19:17;;;;;;;10.27;4.63;;;;;;;;;;1032085;28;20030;-77
2022/10/30 01:20:08;;;;;;;10.20;5.00;;;;;;;;;;1032168;28;20133;-77
2022/10/30 01:20:41;;;;;;;14.25;4.80;;;;;;;;;;1031177;28;20037;-77
2022/10/30 01:21:24;;;;;;;6.93;4.18;;;;;;;;;;1031225;28;20022;-78
2022/10/30 01:21:54;;;;;;;11.32;4.50;;;;;;;;;;1033924;28;20034;-78
2022/10/30 01:22:39;;;;;;;15.88;6.18;;;;;;;;;;1033767;28;20117;-77
2022/10/30 01:23:13;;;;;;;13.57;5.60;;;;;;;;;;1034025;28;20028;-77
2022/10/30 01:23:55;;;;;;;14.68;4.72;;;;;;;;;;1030942;28;20023;-77
2022/10/30 01:24:45;;;;;;;16.17;5.00;;;;;;;;;;1030903;28;20485;-77
2022/10/30 01:25:23;;;;;;;15.00;5.18;;;;;;;;;;1031854;28;20122;-77
2022/10/30 01:25:53;;;;;;;5.93;3.50;;;;;;;;;;1035777;28;20037;-77
2022/10/30 01:26:27;;;;;;;11.00;5.03;;;;;;;;;;1035874;28;20060;-77
2022/10/30 01:27:06;;;;;;;10.57;4.18;;;;;;;;;;1033848;28;20917;-77
2022/10/30 01:27:37;;;;;;;18.83;5.72;;;;;;;;;;1032001;28;20275;-77
2022/10/30 01:28:24;;;;;;;7.78;4.72;;;;;;;;;;1031781;28;20081;-77
2022/10/30 01:29:12;;;;;;;9.73;3.53;;;;;;;;;;1030573;28;20024;-78
2022/10/30 01:30:06;;;;;;;9.77;4.38;;;;;;;;;;1031200;28;20498;-77
2022/10/30 01:30:36;;;;;;;5.93;4.10;;;;;;;;;;1031205;28;20081;-77
2022/10/30 01:31:13;;;;;;;11.13;5.00;;;;;;;;;;1032195;28;20081;-78
2022/10/30 01:31:44;;;;;;;11.55;4.63;;;;;;;;;;1032068;28;20105;-78
2022/10/30 01:32:14;;;;;;;10.98;3.95;;;;;;;;;;1032070;28;20026;-78
2022/10/30 01:33:11;;;;;;;17.65;4.13;;;;;;;;;;1033584;28;20052;-77
2022/10/30 01:34:06;;;;;;;8.75;3.63;;;;;;;;;;1024237;28;20027;-77
2022/10/30 01:34:39;;;;;;;5.90;4.25;;;;;;;;;;1030591;28;20022;-77
2022/10/30 01:35:36;;;;;;;8.70;3.85;;;;;;;;;;1031665;28;20018;-78
2022/10/30 01:36:25;;;;;;;14.50;5.80;;;;;;;;;;1028073;28;20509;-78
2022/10/30 01:37:05;;;;;;;11.68;4.47;;;;;;;;;;1031755;28;20014;-77
2022/10/30 01:37:44;;;;;;;14.52;5.45;;;;;;;;;;1031595;28;20382;-77
2022/10/30 01:38:28;;;;;;;12.93;6.33;;;;;;;;;;1031237;28;20031;-77
2022/10/30 01:39:01;;;;;;;8.55;3.97;;;;;;;;;;1031361;28;20254;-77
2022/10/30 01:39:34;;;;;;;12.57;4.97;;;;;;;;;;1031944;28;20033;-77
2022/10/30 01:40:12;;;;;;;7.93;4.55;;;;;;;;;;1032169;28;20121;-77
2022/10/30 01:40:43;;;;;;;15.10;5.30;;;;;;;;;;1031336;28;20081;-77
2022/10/30 01:41:14;;;;;;;8.80;4.60;;;;;;;;;;1031564;28;20491;-77
2022/10/30 01:41:45;;;;;;;9.07;5.45;;;;;;;;;;1031776;28;20031;-78
2022/10/30 01:42:33;;;;;;;10.45;5.40;;;;;;;;;;1031698;28;20030;-78
2022/10/30 01:43:04;;;;;;;6.93;4.70;;;;;;;;;;1031891;28;20026;-77
2022/10/30 01:43:35;;;;;;;6.60;3.72;;;;;;;;;;1031942;28;20386;-77
2022/10/30 01:44:08;;;;;;;8.55;4.57;;;;;;;;;;1032270;28;20022;-77
2022/10/30 01:44:38;;;;;;;19.92;5.00;;;;;;;;;;1031730;28;20022;-77
2022/10/30 01:45:15;;;;;;;15.75;3.60;;;;;;;;;;1032069;28;20491;-77
2022/10/30 01:46:00;;;;;;;10.63;4.38;;;;;;;;;;1030210;28;20085;-77
2022/10/30 01:46:43;;;;;;;12.93;5.55;;;;;;;;;;1029630;28;20498;-78
2022/10/30 01:47:19;;;;;;;9.15;4.43;;;;;;;;;;1030348;28;20020;-77
2022/10/30 01:48:08;;;;;;;6.05;3.45;;;;;;;;;;1031587;28;20022;-78
2022/10/30 01:48:41;;;;;;;7.25;3.67;;;;;;;;;;1027351;28;20101;-78
2022/10/30 01:49:14;;;;;;;8.82;5.10;;;;;;;;;;1026802;28;20018;-77
2022/10/30 01:50:03;;;;;;;13.13;3.72;;;;;;;;;;1030544;28;20025;-78
2022/10/30 01:50:33;;;;;;;5.10;3.22;;;;;;;;;;1031869;28;20030;-78
2022/10/30 01:51:22;;;;;;;8.02;3.30;;;;;;;;;;1035100;28;20482;-78
2022/10/30 01:52:01;;;;;;;7.88;4.60;;;;;;;;;;1033581;28;20026;-77
2022/10/30 01:52:38;;;;;;;6.85;4.60;;;;;;;;;;1029032;28;20022;-77
2022/10/30 01:53:38;;;;;;;8.45;3.83;;;;;;;;;;1031837;28;20035;-78
2022/10/30 01:54:27;;;;;;;7.78;4.20;;;;;;;;;;1019616;29;20420;-77
2022/10/30 01:55:03;;;;;;;14.20;4.57;;;;;;;;;;1031775;28;20084;-77
2022/10/30 01:55:36;;;;;;;11.75;5.00;;;;;;;;;;1031299;28;20146;-78
2022/10/30 01:56:22;;;;;;;9.63;4.20;;;;;;;;;;1032185;28;20018;-77
2022/10/30 01:56:52;;;;;;;8.18;4.32;;;;;;;;;;1031529;28;20030;-77
2022/10/30 01:57:23;;;;;;;24.40;4.47;;;;;;;;;;1031292;28;20026;-77
2022/10/30 01:57:57;;;;;;;17.63;4.65;;;;;;;;;;1026847;28;20031;-77
2022/10/30 01:58:34;;;;;;;8.73;6.13;;;;;;;;;;1025453;28;20015;-78
2022/10/30 01:59:14;;;;;;;3.97;2.92;;;;;;;;;;1029909;28;20093;-78
2022/10/30 02:00:05;;;;;;;8.05;4.53;;;;;;;;;;1032350;28;20046;-77
2022/10/30 02:00:36;;;;;;;7.78;3.72;;;;;;;;;;1030982;28;20120;-77
2022/10/30 02:01:07;;;;;;;17.73;5.45;;;;;;;;;;1031691;28;20513;-77
2022/10/30 02:01:38;;;;;;;9.77;4.15;;;;;;;;;;1034191;28;20153;-78
2022/10/30 02:02:09;;;;;;;6.55;3.30;;;;;;;;;;1035842;28;20044;-78
2022/10/30 02:02:40;;;;;;;18.00;5.22;;;;;;;;;;1031122;28;20026;-77
2022/10/30 02:03:12;;;;;;;8.30;4.38;;;;;;;;;;1031607;28;20022;-78
2022/10/30 02:03:43;;;;;;;14.25;4.35;;;;;;;;;;1031558;28;20097;-78
2022/10/30 02:04:14;;;;;;;11.20;4.93;;;;;;;;;;1031702;28;20501;-78
2022/10/30 02:04:44;;;;;;;11.80;5.38;;;;;;;;;;1031524;28;20018;-78
2022/10/30 02:05:23;;;;;;;17.20;5.57;;;;;;;;;;1027578;28;20030;-78
2022/10/30 02:05:54;;;;;;;17.35;4.75;;;;;;;;;;1027618;28;20438;-78
2022/10/30 02:06:25;;;;;;;20.35;5.45;;;;;;;;;;1028738;28;20031;-78
2022/10/30 02:06:55;;;;;;;19.67;5.57;;;;;;;;;;1031773;28;20403;-78
2022/10/30 02:07:26;;;;;;;15.82;4.20;;;;;;;;;;1031911;28;20359;-78
2022/10/30 02:07:56;;;;;;;10.27;5.80;;;;;;;;;;1031805;28;20077;-78
2022/10/30 02:08:27;;;;;;;17.92;3.92;;;;;;;;;;1031576;28;20029;-78
2022/10/30 02:08:57;;;;;;;27.17;6.40;;;;;;;;;;1031686;28;20119;-78
2022/10/30 02:09:28;;;;;;;20.20;4.68;;;;;;;;;;1027470;28;20031;-78
2022/10/30 02:09:59;;;;;;;10.05;4.78;;;;;;;;;;1027769;28;20027;-78
2022/10/30 02:10:30;;;;;;;16.80;6.50;;;;;;;;;;1031608;28;20538;-78
2022/10/30 02:11:01;;;;;;;16.83;5.30;;;;;;;;;;1031938;28;20031;-78
2022/10/30 02:11:32;;;;;;;25.40;5.35;;;;;;;;;;1031433;28;20085;-78
2022/10/30 02:12:03;;;;;;;7.75;4.57;;;;;;;;;;1031772;28;20109;-77
2022/10/30 02:12:33;;;;;;;11.80;4.88;;;;;;;;;;1030753;28;20022;-77
2022/10/30 02:13:04;;;;;;;16.95;5.95;;;;;;;;;;1029649;28;20027;-77
2022/10/30 02:13:35;;;;;;;19.23;5.25;;;;;;;;;;1031346;28;20018;-77
2022/10/30 02:14:06;;;;;;;22.35;6.03;;;;;;;;;;1031758;28;20053;-78
2022/10/30 02:14:42;;;;;;;14.80;7.03;;;;;;;;;;1031520;28;20022;-78
2022/10/30 02:15:13;;;;;;;12.15;5.60;;;;;;;;;;1031732;28;20414;-78
2022/10/30 02:15:44;;;;;;;10.70;4.72;;;;;;;;;;1033633;28;20030;-77
2022/10/30 02:16:14;;;;;;;10.45;4.88;;;;;;;;;;1033894;28;20876;-77
2022/10/30 02:16:46;;;;;;;9.90;4.35;;;;;;;;;;1029469;28;20077;-77
2022/10/30 02:17:17;;;;;;;10.50;4.82;;;;;;;;;;1031019;28;20041;-77
2022/10/30 02:17:48;;;;;;;14.75;4.78;;;;;;;;;;1031485;28;20018;-77
2022/10/30 02:18:18;;;;;;;17.80;5.32;;;;;;;;;;1031424;28;20528;-77
2022/10/30 02:18:49;;;;;;;16.52;4.55;;;;;;;;;;1031486;28;20022;-78
2022/10/30 02:19:19;;;;;;;10.02;4.50;;;;;;;;;;1031580;28;20501;-77
2022/10/30 02:19:50;;;;;;;15.93;6.68;;;;;;;;;;1035292;28;20040;-77
2022/10/30 02:20:20;;;;;;;13.45;5.00;;;;;;;;;;1035555;28;20125;-77
2022/10/30 02:20:51;;;;;;;9.73;4.75;;;;;;;;;;1031921;28;20018;-77
2022/10/30 02:21:22;;;;;;;14.40;4.25;;;;;;;;;;1031973;28;20394;-77
2022/10/30 02:21:52;;;;;;;13.05;5.45;;;;;;;;;;1031271;28;20387;-78
2022/10/30 02:22:23;;;;;;;10.43;4.50;;;;;;;;;;1031592;28;20092;-77
2022/10/30 02:22:54;;;;;;;11.15;5.57;;;;;;;;;;1031690;28;20058;-77
2022/10/30 02:23:24;;;;;;;15.32;5.03;;;;;;;;;;1031510;28;20025;-77
2022/10/30 02:23:55;;;;;;;12.57;4.57;;;;;;;;;;1034443;28;20476;-77
2022/10/30 02:24:26;;;;;;;9.07;4.50;;;;;;;;;;1031428;28;20434;-77
2022/10/30 02:24:56;;;;;;;10.52;4.05;;;;;;;;;;1031588;28;20469;-77
2022/10/30 02:25:27;;;;;;;8.93;4.47;;;;;;;;;;1031524;28;20034;-77
2022/10/30 02:25:57;;;;;;;13.50;5.53;;;;;;;;;;1031626;28;20536;-77
2022/10/30 02:26:28;;;;;;;12.75;6.13;;;;;;;;;;1031846;28;20026;-77
2022/10/30 02:26:59;;;;;;;10.13;4.85;;;;;;;;;;1031473;28;20029;-78
2022/10/30 02:27:29;;;;;;;13.48;5.32;;;;;;;;;;1031496;28;20084;-77
2022/10/30 02:28:00;;;;;;;13.07;4.80;;;;;;;;;;1031322;28;20030;-77
2022/10/30 02:28:30;;;;;;;13.93;4.40;;;;;;;;;;1027356;28;20106;-77
2022/10/30 02:29:01;;;;;;;12.05;4.20;;;;;;;;;;1031638;28;20058;-77
2022/10/30 02:29:32;;;;;;;11.82;4.65;;;;;;;;;;1031463;28;20045;-77
2022/10/30 02:30:03;;;;;;;10.45;4.20;;;;;;;;;;1031821;28;20085;-77
2022/10/30 02:30:33;;;;;;;18.63;4.82;;;;;;;;;;1031129;28;20022;-77
2022/10/30 02:31:05;;;;;;;8.88;3.67;;;;;;;;;;1031665;28;20026;-77
2022/10/30 02:31:35;;;;;;;12.38;4.32;;;;;;;;;;1031407;28;20498;-77
2022/10/30 02:32:06;;;;;;;15.98;5.18;;;;;;;;;;1031617;28;20060;-77
2022/10/30 02:32:37;;;;;;;12.43;5.60;;;;;;;;;;1031297;28;20038;-77
2022/10/30 02:33:07;;;;;;;12.93;4.80;;;;;;;;;;1031313;28;20026;-77
2022/10/30 02:33:38;;;;;;;9.23;4.57;;;;;;;;;;1031233;28;20049;-77
2022/10/30 02:34:08;;;;;;;10.73;4.57;;;;;;;;;;1031733;28;20058;-77
2022/10/30 02:34:39;;;;;;;13.30;5.55;;;;;;;;;;1035462;28;20030;-77
2022/10/30 02:35:09;;;;;;;10.07;4.95;;;;;;;;;;1035621;28;20033;-77
2022/10/30 02:35:40;;;;;;;14.80;4.40;;;;;;;;;;1035545;28;20049;-77
2022/10/30 02:36:10;;;;;;;17.92;5.50;;;;;;;;;;1035367;28;20064;-77
2022/10/30 02:36:41;;;;;;;19.00;5.57;;;;;;;;;;1031845;28;20029;-77
2022/10/30 02:37:12;;;;;;;13.82;6.38;;;;;;;;;;1031862;28;20109;-77
2022/10/30 02:37:42;;;;;;;12.23;6.07;;;;;;;;;;1031758;28;20121;-77
2022/10/30 02:38:13;;;;;;;13.63;5.78;;;;;;;;;;1031724;28;20029;-77
2022/10/30 02:38:43;;;;;;;11.50;6.03;;;;;;;;;;1031687;28;20018;-77
2022/10/30 02:39:14;;;;;;;15.45;5.97;;;;;;;;;;1031426;28;20541;-77
2022/10/30 02:39:44;;;;;;;23.80;7.95;;;;;;;;;;1031601;28;20022;-77
2022/10/30 02:40:15;;;;;;;17.30;8.02;;;;;;;;;;1031412;28;20140;-77
2022/10/30 02:40:45;;;;;;;14.70;6.68;;;;;;;;;;1031554;28;20063;-78
2022/10/30 02:41:16;;;;;;;18.77;7.60;;;;;;;;;;1035347;28;20060;-77
2022/10/30 02:41:47;;;;;;;29.10;8.43;;;;;;;;;;1031387;28;20112;-77
2022/10/30 02:42:18;;;;;;;19.27;6.40;;;;;;;;;;1031398;28;20034;-78
2022/10/30 02:42:52;;;;;;;22.23;8.07;;;;;;;;;;1031225;28;20090;-78
2022/10/30 02:43:22;;;;;;;17.58;7.45;;;;;;;;;;1031652;28;20406;-78
2022/10/30 02:43:53;;;;;;;19.52;8.55;;;;;;;;;;1031390;28;20025;-78
2022/10/30 02:44:23;;;;;;;31.00;8.73;;;;;;;;;;1027280;28;20027;-78
2022/10/30 02:44:54;;;;;;;18.80;8.05;;;;;;;;;;1027567;28;20030;-78
2022/10/30 02:45:24;;;;;;;15.68;6.80;;;;;;;;;;1027605;28;20023;-77
2022/10/30 02:45:55;;;;;;;33.22;9.70;;;;;;;;;;1029403;28;20033;-78
2022/10/30 02:46:25;;;;;;;17.48;8.70;;;;;;;;;;1029420;28;20038;-77
2022/10/30 02:46:56;;;;;;;15.30;8.05;;;;;;;;;;1029495;28;20172;-78
2022/10/30 02:47:30;;;;;;;26.98;9.05;;;;;;;;;;1028795;28;20137;-78
2022/10/30 02:48:00;;;;;;;18.10;7.43;;;;;;;;;;1031546;28;20474;-78
2022/10/30 02:48:31;;;;;;;19.75;7.60;;;;;;;;;;1031587;28;20030;-78
2022/10/30 02:49:02;;;;;;;18.45;9.00;;;;;;;;;;1031480;28;20069;-78
2022/10/30 02:49:33;;;;;;;43.72;10.05;;;;;;;;;;1031398;28;20108;-78
2022/10/30 02:50:03;;;;;;;26.73;8.27;;;;;;;;;;1031689;28;20475;-78
2022/10/30 02:50:34;;;;;;;19.63;7.00;;;;;;;;;;1030804;28;20037;-77
2022/10/30 02:51:04;;;;;;;19.25;6.68;;;;;;;;;;1031488;28;20022;-78
2022/10/30 02:51:35;;;;;;;20.10;8.95;;;;;;;;;;1031141;28;20030;-77
2022/10/30 02:52:07;;;;;;;26.85;10.52;;;;;;;;;;1031880;28;20510;-78
2022/10/30 02:52:37;;;;;;;24.15;8.98;;;;;;;;;;1031216;28;20414;-77
2022/10/30 02:53:08;;;;;;;24.25;8.90;;;;;;;;;;1031550;28;20026;-77
2022/10/30 02:53:38;;;;;;;20.65;8.13;;;;;;;;;;1030954;28;20073;-77
2022/10/30 02:54:09;;;;;;;19.73;8.38;;;;;;;;;;1030474;28;20181;-78
2022/10/30 02:54:39;;;;;;;26.58;8.80;;;;;;;;;;1030826;28;20030;-78
2022/10/30 02:55:10;;;;;;;26.25;8.63;;;;;;;;;;1031581;28;20022;-78
2022/10/30 02:55:40;;;;;;;25.50;10.10;;;;;;;;;;1030296;28;20014;-78
2022/10/30 02:56:12;;;;;;;29.70;8.98;;;;;;;;;;1031420;28;20026;-78
2022/10/30 02:56:43;;;;;;;27.65;7.32;;;;;;;;;;1030866;28;20022;-78
2022/10/30 02:57:13;;;;;;;14.48;6.82;;;;;;;;;;1031218;28;20061;-77
2022/10/30 02:57:44;;;;;;;17.10;8.05;;;;;;;;;;1030212;28;20026;-77
2022/10/30 02:58:14;;;;;;;19.75;7.85;;;;;;;;;;1031155;28;20034;-77
2022/10/30 02:58:45;;;;;;;33.13;7.90;;;;;;;;;;1029746;28;20379;-78
2022/10/30 02:59:15;;;;;;;22.38;8.43;;;;;;;;;;1029770;28;20118;-78
2022/10/30 02:59:46;;;;;;;22.88;7.22;;;;;;;;;;1030259;28;20040;-77
2022/10/30 03:00:16;;;;;;;17.98;7.50;;;;;;;;;;1029948;28;20027;-77
2022/10/30 03:00:47;;;;;;;14.93;7.22;;;;;;;;;;1031251;28;20030;-78
2022/10/30 03:01:18;;;;;;;20.02;8.70;;;;;;;;;;1031496;28;20061;-77
2022/10/30 03:01:49;;;;;;;37.33;9.02;;;;;;;;;;1031531;28;20390;-77
2022/10/30 03:02:19;;;;;;;17.05;7.18;;;;;;;;;;1031038;28;21496;-78
2022/10/30 03:02:54;;;;;;;24.20;8.13;;;;;;;;;;1031496;28;20030;-78
2022/10/30 03:03:24;;;;;;;16.98;6.80;;;;;;;;;;1031545;28;20026;-78
2022/10/30 03:03:55;;;;;;;18.80;7.82;;;;;;;;;;1031685;28;20465;-78
2022/10/30 03:04:25;;;;;;;26.75;7.93;;;;;;;;;;1031683;28;20097;-78
2022/10/30 03:04:56;;;;;;;19.48;8.23;;;;;;;;;;1031723;28;20126;-78
2022/10/30 03:05:26;;;;;;;30.20;8.68;;;;;;;;;;1031326;28;20029;-78
2022/10/30 03:05:59;;;;;;;26.23;8.25;;;;;;;;;;1031354;28;20031;-78
2022/10/30 03:06:29;;;;;;;16.17;7.32;;;;;;;;;;1029354;28;20027;-78
2022/10/30 03:07:00;;;;;;;19.52;8.20;;;;;;;;;;1030331;28;20030;-78
2022/10/30 03:07:31;;;;;;;10.88;6.00;;;;;;;;;;1034523;28;20037;-78
2022/10/30 03:08:01;;;;;;;13.32;5.65;;;;;;;;;;1034321;28;20097;-78
2022/10/30 03:08:32;;;;;;;17.02;6.78;;;;;;;;;;1030536;28;20023;-78
2022/10/30 03:09:03;;;;;;;28.98;8.57;;;;;;;;;;1031222;28;20494;-78
2022/10/30 03:09:33;;;;;;;20.42;8.05;;;;;;;;;;1031230;28;20026;-78
2022/10/30 03:10:04;;;;;;;17.73;6.32;;;;;;;;;;1031636;28;20034;-78
2022/10/30 03:10:35;;;;;;;17.42;7.38;;;;;;;;;;1035010;28;20022;-78
2022/10/30 03:11:06;;;;;;;12.25;7.20;;;;;;;;;;1031483;28;20045;-78
2022/10/30 03:11:37;;;;;;;14.15;7.45;;;;;;;;;;1031571;28;20124;-78
2022/10/30 03:12:07;;;;;;;15.43;6.28;;;;;;;;;;1031701;28;20521;-78
2022/10/30 03:12:38;;;;;;;16.48;7.00;;;;;;;;;;1033641;28;20054;-78
2022/10/30 03:13:09;;;;;;;14.30;6.72;;;;;;;;;;1028502;28;20061;-78
2022/10/30 03:13:40;;;;;;;12.63;5.50;;;;;;;;;;1028914;28;20041;-78
2022/10/30 03:14:10;;;;;;;12.90;5.90;;;;;;;;;;1028638;28;20037;-78